createdAt,value
2018-04-18T00:01:14.272Z,22.57
2018-04-18T00:03:42.863Z,23.90
2018-04-18T00:06:12.851Z,25.03
2018-04-18T00:08:43.236Z,25.00
2018-04-18T00:11:11.298Z,23.27
2018-04-18T00:13:40.297Z,23.33
2018-04-18T00:16:08.141Z,22.17
2018-04-18T00:18:36.064Z,19.83
2018-04-18T00:21:04.013Z,22.87
2018-04-18T00:23:32.735Z,21.37
2018-04-18T00:26:00.596Z,20.87
2018-04-18T00:28:28.547Z,20.23
2018-04-18T00:30:57.164Z,19.70
2018-04-18T00:33:25.824Z,22.43
2018-04-18T00:35:54.444Z,20.63
2018-04-18T00:38:22.377Z,20.37
2018-04-18T00:40:51.009Z,19.87
2018-04-18T00:43:19.360Z,19.67
2018-04-18T00:45:48.000Z,18.23
2018-04-18T00:48:16.769Z,18.83
2018-04-18T00:50:44.609Z,16.70
2018-04-18T00:53:13.252Z,18.07
2018-04-18T00:55:40.816Z,18.20
2018-04-18T00:58:08.591Z,16.67
2018-04-18T01:00:36.569Z,18.60
2018-04-18T01:03:04.376Z,16.70
2018-04-18T01:05:33.079Z,17.40
2018-04-18T01:08:00.856Z,16.07
2018-04-18T01:10:28.708Z,17.77
2018-04-18T01:12:57.908Z,16.23
2018-04-18T01:15:27.552Z,16.87
2018-04-18T01:17:55.344Z,16.13
2018-04-18T01:20:23.208Z,14.67
2018-04-18T01:22:51.041Z,16.53
2018-04-18T01:25:18.848Z,16.13
2018-04-18T01:27:46.806Z,18.80
2018-04-18T01:30:14.612Z,13.80
2018-04-18T01:32:42.626Z,14.77
2018-04-18T01:35:11.237Z,15.23
2018-04-18T01:37:39.088Z,13.33
2018-04-18T01:40:07.673Z,15.10
2018-04-18T01:42:35.994Z,12.60
2018-04-18T01:45:03.780Z,16.67
2018-04-18T01:47:31.729Z,13.70
2018-04-18T01:49:59.284Z,12.53
2018-04-18T01:52:27.124Z,11.20
2018-04-18T01:54:55.748Z,13.20
2018-04-18T01:57:24.106Z,13.70
2018-04-18T01:59:52.839Z,13.33
2018-04-18T02:02:20.920Z,13.60
2018-04-18T02:04:48.817Z,11.90
2018-04-18T02:07:16.651Z,12.07
2018-04-18T02:09:44.593Z,12.10
2018-04-18T02:12:14.396Z,8.97
2018-04-18T02:14:43.217Z,11.77
2018-04-18T02:17:11.198Z,13.10
2018-04-18T02:19:39.042Z,11.27
2018-04-18T02:22:08.072Z,10.83
2018-04-18T02:24:35.943Z,12.20
2018-04-18T02:27:03.983Z,11.10
2018-04-18T02:29:32.557Z,10.17
2018-04-18T02:32:00.116Z,12.53
2018-04-18T02:34:28.328Z,11.43
2018-04-18T02:36:56.123Z,11.73
2018-04-18T02:39:24.295Z,11.30
2018-04-18T02:41:52.228Z,9.37
2018-04-18T02:44:20.557Z,12.67
2018-04-18T02:46:48.392Z,10.33
2018-04-18T02:49:16.927Z,11.67
2018-04-18T02:51:45.157Z,10.33
2018-04-18T02:54:13.744Z,10.97
2018-04-18T02:56:42.149Z,9.17
2018-04-18T02:59:10.205Z,12.00
2018-04-18T03:01:38.795Z,12.43
2018-04-18T03:04:07.341Z,11.53
2018-04-18T03:06:35.244Z,8.30
2018-04-18T03:09:03.120Z,10.13
2018-04-18T03:11:31.197Z,8.27
2018-04-18T03:13:59.775Z,8.73
2018-04-18T03:16:28.411Z,9.37
2018-04-18T03:18:56.526Z,12.30
2018-04-18T03:21:24.166Z,11.03
2018-04-18T03:23:51.992Z,13.13
2018-04-18T03:26:21.408Z,11.73
2018-04-18T03:28:49.952Z,10.17
2018-04-18T03:31:17.757Z,11.63
2018-04-18T03:33:46.400Z,13.40
2018-04-18T03:36:14.037Z,10.97
2018-04-18T03:38:41.880Z,10.97
2018-04-18T03:41:10.476Z,11.00
2018-04-18T03:43:39.163Z,10.47
2018-04-18T03:46:07.000Z,16.17
2018-04-18T03:48:34.768Z,13.30
2018-04-18T03:51:02.579Z,11.40
2018-04-18T03:53:31.263Z,12.60
2018-04-18T03:56:00.311Z,11.90
2018-04-18T03:58:28.263Z,15.33
2018-04-18T04:00:56.141Z,13.80
2018-04-18T04:03:23.984Z,10.13
2018-04-18T04:05:52.683Z,11.17
2018-04-18T04:08:20.546Z,11.83
2018-04-18T04:10:49.669Z,11.90
2018-04-18T04:13:17.686Z,15.70
2018-04-18T04:15:45.592Z,12.10
2018-04-18T04:18:26.349Z,14.70
2018-04-18T04:21:06.201Z,13.27
2018-04-18T04:23:46.860Z,12.90
2018-04-18T04:26:15.444Z,12.63
2018-04-18T04:28:44.080Z,14.80
2018-04-18T04:31:11.782Z,15.10
2018-04-18T04:33:39.576Z,11.83
2018-04-18T04:36:08.034Z,12.87
2018-04-18T04:38:35.909Z,13.37
2018-04-18T04:41:04.518Z,11.90
2018-04-18T04:43:33.150Z,11.53
2018-04-18T04:46:00.709Z,17.57
2018-04-18T04:48:28.551Z,12.00
2018-04-18T04:50:56.884Z,14.13
2018-04-18T04:53:24.764Z,15.53
2018-04-18T04:55:52.436Z,13.57
2018-04-18T04:58:19.989Z,17.80
2018-04-18T05:00:47.535Z,15.87
2018-04-18T05:03:15.611Z,12.93
2018-04-18T05:05:43.525Z,15.90
2018-04-18T05:08:11.380Z,20.27
2018-04-18T05:10:38.940Z,12.07
2018-04-18T05:13:06.754Z,18.27
2018-04-18T05:15:35.387Z,13.93
2018-04-18T05:18:03.242Z,18.40
2018-04-18T05:20:31.735Z,12.03
2018-04-18T05:22:59.596Z,16.33
2018-04-18T05:25:27.436Z,19.33
2018-04-18T05:27:56.091Z,18.00
2018-04-18T05:30:23.715Z,13.30
2018-04-18T05:32:51.399Z,19.17
2018-04-18T05:35:19.336Z,15.67
2018-04-18T05:37:47.931Z,15.87
2018-04-18T05:40:16.493Z,19.73
2018-04-18T05:42:45.100Z,15.60
2018-04-18T05:45:13.862Z,18.50
2018-04-18T05:47:41.988Z,15.23
2018-04-18T05:50:09.853Z,19.97
2018-04-18T05:52:38.401Z,16.93
2018-04-18T05:55:06.252Z,18.27
2018-04-18T05:57:34.131Z,18.40
2018-04-18T06:00:02.009Z,22.33
2018-04-18T06:02:29.796Z,17.93
2018-04-18T06:04:58.408Z,18.43
2018-04-18T06:07:26.976Z,20.83
2018-04-18T06:09:54.755Z,17.60
2018-04-18T06:12:22.692Z,19.40
2018-04-18T06:14:50.522Z,19.63
2018-04-18T06:17:18.343Z,21.53
2018-04-18T06:19:46.127Z,14.50
2018-04-18T06:22:14.389Z,19.77
2018-04-18T06:24:42.168Z,17.67
2018-04-18T06:27:09.838Z,13.90
2018-04-18T06:29:37.452Z,16.20
2018-04-18T06:32:06.438Z,18.77
2018-04-18T06:34:34.309Z,18.73
2018-04-18T06:37:02.632Z,16.30
2018-04-18T06:39:30.188Z,15.60
2018-04-18T06:41:58.153Z,14.90
2018-04-18T06:44:25.996Z,17.00
2018-04-18T06:46:54.392Z,16.60
2018-04-18T06:49:22.260Z,17.07
2018-04-18T06:51:50.117Z,19.43
2018-04-18T06:54:18.674Z,16.57
2018-04-18T06:56:46.779Z,15.97
2018-04-18T06:59:15.332Z,16.40
2018-04-18T07:01:42.896Z,15.33
2018-04-18T07:04:10.913Z,18.97
2018-04-18T07:06:38.767Z,12.10
2018-04-18T07:09:07.427Z,15.87
2018-04-18T07:11:35.843Z,11.30
2018-04-18T07:14:03.668Z,13.80
2018-04-18T07:16:31.536Z,14.37
2018-04-18T07:18:59.348Z,14.77
2018-04-18T07:21:26.991Z,15.90
2018-04-18T07:23:54.840Z,18.67
2018-04-18T07:26:22.498Z,13.97
2018-04-18T07:28:50.340Z,17.17
2018-04-18T07:31:18.933Z,12.60
2018-04-18T07:33:49.285Z,12.57
2018-04-18T07:36:17.104Z,12.93
2018-04-18T07:38:44.680Z,17.70
2018-04-18T07:41:12.544Z,17.23
2018-04-18T07:43:40.336Z,14.50
2018-04-18T07:46:08.919Z,16.00
2018-04-18T07:48:37.547Z,11.53
2018-04-18T07:51:05.381Z,20.80
2018-04-18T07:53:34.072Z,14.77
2018-04-18T07:56:01.950Z,12.87
2018-04-18T07:58:30.428Z,13.87
2018-04-18T08:00:58.240Z,17.33
2018-04-18T08:03:26.088Z,14.13
2018-04-18T08:05:54.143Z,10.10
2018-04-18T08:08:21.929Z,15.20
2018-04-18T08:10:50.513Z,17.40
2018-04-18T08:13:19.108Z,16.90
2018-04-18T08:15:47.785Z,14.50
2018-04-18T08:18:16.126Z,16.90
2018-04-18T08:20:43.704Z,13.77
2018-04-18T08:23:11.612Z,13.10
2018-04-18T08:25:40.195Z,16.43
2018-04-18T08:28:08.747Z,18.13
2018-04-18T08:30:36.567Z,14.77
2018-04-18T08:33:04.383Z,17.07
2018-04-18T08:35:32.217Z,13.13
2018-04-18T08:38:00.536Z,13.63
2018-04-18T08:40:29.029Z,14.60
2018-04-18T08:42:56.868Z,12.73
2018-04-18T08:45:24.704Z,11.37
2018-04-18T08:47:53.498Z,12.57
2018-04-18T08:50:22.129Z,14.17
2018-04-18T08:52:49.720Z,14.43
2018-04-18T08:55:17.499Z,9.73
2018-04-18T08:57:45.332Z,14.83
2018-04-18T09:00:13.164Z,12.83
2018-04-18T09:02:41.803Z,12.83
2018-04-18T09:05:09.758Z,14.27
2018-04-18T09:07:37.566Z,12.70
2018-04-18T09:10:05.168Z,17.00
2018-04-18T09:12:33.493Z,13.17
2018-04-18T09:15:01.313Z,14.70
2018-04-18T09:17:29.144Z,10.80
2018-04-18T09:19:57.383Z,11.40
2018-04-18T09:22:25.164Z,14.50
2018-04-18T09:24:52.732Z,14.87
2018-04-18T09:27:20.557Z,11.60
2018-04-18T09:29:48.336Z,16.20
2018-04-18T09:32:16.985Z,14.27
2018-04-18T09:34:44.764Z,14.60
2018-04-18T09:37:13.681Z,13.63
2018-04-18T09:39:41.506Z,15.23
2018-04-18T09:42:09.324Z,19.33
2018-04-18T09:44:36.871Z,11.70
2018-04-18T09:47:04.429Z,12.57
2018-04-18T09:49:32.272Z,15.43
2018-04-18T09:52:00.048Z,12.60
2018-04-18T09:54:27.893Z,13.73
2018-04-18T09:56:55.742Z,13.13
2018-04-18T09:59:24.331Z,10.70
2018-04-18T10:01:53.621Z,12.20
2018-04-18T10:04:26.984Z,15.67
2018-04-18T10:06:54.725Z,13.57
2018-04-18T10:09:22.280Z,13.73
2018-04-18T10:11:50.614Z,15.20
2018-04-18T10:14:18.439Z,19.67
2018-04-18T10:16:47.128Z,16.03
2018-04-18T10:19:14.774Z,12.03
2018-04-18T10:21:43.327Z,13.00
2018-04-18T10:24:10.953Z,13.13
2018-04-18T10:26:39.004Z,15.53
2018-04-18T10:29:07.323Z,15.10
2018-04-18T10:31:35.153Z,15.63
2018-04-18T10:34:04.200Z,15.97
2018-04-18T10:36:32.041Z,13.83
2018-04-18T10:39:00.650Z,14.23
2018-04-18T10:41:28.230Z,12.30
2018-04-18T10:43:55.780Z,12.07
2018-04-18T10:46:23.857Z,10.30
2018-04-18T10:48:51.670Z,12.97
2018-04-18T10:51:19.480Z,14.60
2018-04-18T10:53:47.064Z,13.70
2018-04-18T10:56:15.004Z,14.30
2018-04-18T10:58:43.484Z,15.67
2018-04-18T11:01:12.213Z,17.13
2018-04-18T11:03:40.051Z,11.83
2018-04-18T11:06:08.437Z,14.57
2018-04-18T11:08:36.892Z,11.73
2018-04-18T11:11:04.761Z,10.97
2018-04-18T11:13:32.639Z,16.03
2018-04-18T11:16:00.491Z,10.20
2018-04-18T11:18:28.404Z,9.27
2018-04-18T11:20:56.939Z,10.57
2018-04-18T11:23:24.734Z,12.90
2018-04-18T11:25:53.080Z,11.37
2018-04-18T11:28:20.928Z,12.43
2018-04-18T11:30:49.847Z,11.57
2018-04-18T11:33:17.695Z,13.10
2018-04-18T11:35:45.571Z,14.77
2018-04-18T11:38:13.364Z,12.93
2018-04-18T11:40:41.437Z,9.67
2018-04-18T11:43:09.371Z,8.60
2018-04-18T11:45:37.684Z,9.63
2018-04-18T11:48:05.524Z,8.37
2018-04-18T11:50:33.076Z,9.50
2018-04-18T11:53:00.832Z,8.30
2018-04-18T11:55:28.733Z,6.83
2018-04-18T11:57:57.552Z,8.90
2018-04-18T12:00:26.223Z,7.40
2018-04-18T12:02:54.913Z,5.97
2018-04-18T12:05:22.832Z,7.13
2018-04-18T12:07:50.380Z,7.67
2018-04-18T12:10:18.193Z,6.07
2018-04-18T12:12:45.972Z,6.60
2018-04-18T12:15:14.567Z,4.60
2018-04-18T12:17:42.840Z,6.00
2018-04-18T12:20:10.690Z,4.03
2018-04-18T12:22:38.890Z,4.40
2018-04-18T12:25:06.697Z,5.00
2018-04-18T12:27:34.585Z,4.10
2018-04-18T12:30:02.405Z,3.13
2018-04-18T12:32:30.192Z,4.60
2018-04-18T12:34:58.509Z,4.00
2018-04-18T12:37:26.086Z,6.07
2018-04-18T12:39:53.828Z,6.63
2018-04-18T12:42:21.772Z,6.23
2018-04-18T12:44:50.469Z,4.73
2018-04-18T12:47:19.388Z,5.50
2018-04-18T12:49:47.235Z,5.20
2018-04-18T12:52:15.818Z,4.20
2018-04-18T12:54:44.136Z,6.03
2018-04-18T12:57:12.040Z,5.93
2018-04-18T12:59:39.881Z,5.73
2018-04-18T13:02:07.552Z,8.23
2018-04-18T13:04:35.100Z,5.10
2018-04-18T13:07:02.884Z,7.43
2018-04-18T13:09:30.665Z,5.00
2018-04-18T13:11:58.216Z,3.97
2018-04-18T13:14:25.778Z,7.10
2018-04-18T13:16:53.720Z,5.10
2018-04-18T13:19:22.303Z,5.87
2018-04-18T13:21:50.188Z,5.07
2018-04-18T13:24:18.509Z,7.53
2018-04-18T13:26:46.468Z,5.23
2018-04-18T13:29:14.314Z,5.83
2018-04-18T13:31:42.896Z,4.30
2018-04-18T13:34:11.320Z,4.43
2018-04-18T13:36:39.144Z,8.77
2018-04-18T13:39:06.941Z,6.47
2018-04-18T13:41:34.564Z,4.67
2018-04-18T13:44:02.354Z,5.07
2018-04-18T13:46:30.973Z,5.20
2018-04-18T13:48:58.541Z,6.40
2018-04-18T13:51:26.352Z,5.43
2018-04-18T13:53:54.456Z,5.63
2018-04-18T13:56:22.773Z,5.50
2018-04-18T13:58:50.468Z,6.90
2018-04-18T14:01:18.280Z,6.23
2018-04-18T14:03:45.863Z,5.90
2018-04-18T14:06:13.537Z,7.07
2018-04-18T14:08:41.376Z,5.83
2018-04-18T14:13:42.915Z,5.93
2018-04-18T14:16:10.852Z,6.23
2018-04-18T14:18:38.592Z,8.13
2018-04-18T14:21:07.425Z,9.80
2018-04-18T14:23:35.350Z,8.47
2018-04-18T14:26:04.984Z,8.60
2018-04-18T14:28:32.557Z,7.47
2018-04-18T14:31:00.113Z,7.80
2018-04-18T14:33:27.711Z,6.90
2018-04-18T14:35:56.131Z,6.27
2018-04-18T14:38:24.828Z,5.43
2018-04-18T14:40:53.552Z,6.17
2018-04-18T14:43:21.415Z,7.93
2018-04-18T14:45:50.029Z,7.80
2018-04-18T14:48:18.588Z,6.23
2018-04-18T14:50:46.905Z,9.67
2018-04-18T14:53:14.875Z,7.43
2018-04-18T14:55:42.694Z,5.57
2018-04-18T14:58:10.251Z,6.17
2018-04-18T15:00:38.084Z,8.73
2018-04-18T15:03:05.915Z,6.63
2018-04-18T15:05:34.980Z,6.80
2018-04-18T15:08:02.764Z,6.67
2018-04-18T15:10:30.544Z,7.77
2018-04-18T15:12:59.492Z,8.93
2018-04-18T15:15:27.078Z,6.83
2018-04-18T15:17:56.492Z,6.50
2018-04-18T15:20:24.496Z,7.27
2018-04-18T15:22:53.632Z,8.03
2018-04-18T15:25:21.448Z,5.43
2018-04-18T15:27:49.273Z,8.00
2018-04-18T15:30:17.084Z,6.87
2018-04-18T15:32:46.419Z,5.40
2018-04-18T15:35:14.873Z,5.90
2018-04-18T15:37:43.525Z,6.30
2018-04-18T15:40:11.121Z,5.97
2018-04-18T15:42:39.035Z,5.77
2018-04-18T15:45:07.348Z,3.70
2018-04-18T15:47:35.196Z,9.60
2018-04-18T15:50:03.780Z,5.43
2018-04-18T15:52:31.333Z,6.67
2018-04-18T15:54:59.955Z,6.00
2018-04-18T15:57:27.832Z,5.43
2018-04-18T15:59:55.664Z,5.90
2018-04-18T16:02:25.313Z,4.93
2018-04-18T16:04:53.729Z,4.57
2018-04-18T16:07:22.176Z,4.77
2018-04-18T16:09:50.540Z,4.63
2018-04-18T16:12:19.124Z,5.13
2018-04-18T16:14:47.574Z,4.87
2018-04-18T16:17:15.592Z,5.13
2018-04-18T16:19:44.136Z,5.40
2018-04-18T16:22:12.040Z,5.50
2018-04-18T16:24:40.364Z,4.83
2018-04-18T16:27:08.284Z,4.03
2018-04-18T16:29:43.333Z,4.80
2018-04-18T16:32:11.732Z,5.40
2018-04-18T16:34:39.619Z,4.03
2018-04-18T16:37:07.442Z,3.53
2018-04-18T16:39:36.041Z,3.53
2018-04-18T16:42:03.918Z,5.37
2018-04-18T16:44:33.764Z,4.00
2018-04-18T16:47:02.098Z,4.10
2018-04-18T16:49:29.992Z,3.10
2018-04-18T16:51:58.403Z,5.03
2018-04-18T16:54:26.348Z,3.23
2018-04-18T16:56:55.000Z,3.53
2018-04-18T16:59:22.816Z,2.33
2018-04-18T17:01:51.395Z,3.23
2018-04-18T17:04:20.080Z,4.83
2018-04-18T17:06:49.633Z,2.77
2018-04-18T17:09:17.417Z,2.80
2018-04-18T17:11:45.360Z,4.70
2018-04-18T17:14:13.375Z,4.27
2018-04-18T17:16:41.292Z,4.70
2018-04-18T17:19:10.080Z,4.53
2018-04-18T17:21:38.460Z,2.20
2018-04-18T17:24:07.566Z,3.83
2018-04-18T17:26:36.183Z,2.43
2018-04-18T17:29:04.120Z,2.20
2018-04-18T17:31:32.664Z,3.90
2018-04-18T17:34:00.496Z,5.97
2018-04-18T17:36:29.196Z,4.67
2018-04-18T17:38:57.047Z,2.47
2018-04-18T17:41:25.768Z,2.70
2018-04-18T17:43:53.602Z,2.97
2018-04-18T17:46:22.433Z,3.73
2018-04-18T17:48:51.223Z,3.40
2018-04-18T17:51:19.100Z,3.40
2018-04-18T17:53:47.802Z,3.23
2018-04-18T17:56:15.620Z,4.17
2018-04-18T17:58:44.172Z,3.13
2018-04-18T18:01:11.896Z,4.77
2018-04-18T18:03:39.463Z,5.03
2018-04-18T18:06:07.326Z,3.27
2018-04-18T18:08:37.142Z,3.87
2018-04-18T18:11:06.021Z,4.83
2018-04-18T18:13:34.707Z,3.57
2018-04-18T18:16:03.078Z,3.30
2018-04-18T18:18:32.123Z,3.93
2018-04-18T18:20:59.960Z,2.93
2018-04-18T18:23:27.534Z,3.63
2018-04-18T18:25:56.211Z,5.13
2018-04-18T18:28:25.564Z,2.97
2018-04-18T18:30:53.689Z,5.53
2018-04-18T18:33:22.000Z,2.30
2018-04-18T18:35:51.035Z,3.33
2018-04-18T18:38:18.609Z,2.30
2018-04-18T18:40:46.197Z,3.73
2018-04-18T18:43:14.839Z,4.07
2018-04-18T18:45:42.360Z,6.27
2018-04-18T18:48:11.695Z,2.73
2018-04-18T18:50:39.573Z,4.90
2018-04-18T18:53:07.369Z,4.03
2018-04-18T18:55:35.274Z,4.27
2018-04-18T18:58:04.323Z,5.03
2018-04-18T19:00:32.533Z,3.93
2018-04-18T19:03:00.426Z,5.17
2018-04-18T19:05:28.904Z,3.47
2018-04-18T19:07:56.776Z,4.43
2018-04-18T19:10:24.913Z,3.67
2018-04-18T19:12:52.828Z,9.77
2018-04-18T19:15:20.718Z,5.37
2018-04-18T19:17:49.478Z,4.57
2018-04-18T19:20:17.366Z,4.37
2018-04-18T19:22:45.768Z,3.80
2018-04-18T19:25:14.354Z,4.30
2018-04-18T19:27:42.975Z,6.87
2018-04-18T19:30:10.952Z,7.23
2018-04-18T19:32:38.696Z,5.63
2018-04-18T19:35:08.125Z,6.10
2018-04-18T19:37:36.055Z,5.30
2018-04-18T19:40:04.379Z,3.63
2018-04-18T19:42:32.360Z,4.70
2018-04-18T19:45:00.882Z,7.63
2018-04-18T19:47:29.701Z,3.17
2018-04-18T19:49:57.998Z,8.13
2018-04-18T19:52:25.990Z,2.80
2018-04-18T19:54:53.540Z,4.27
2018-04-18T19:57:21.894Z,3.90
2018-04-18T19:59:49.667Z,4.20
2018-04-18T20:02:17.926Z,3.63
2018-04-18T20:04:45.732Z,3.23
2018-04-18T20:07:14.095Z,3.00
2018-04-18T20:09:41.812Z,1.67
2018-04-18T20:12:09.373Z,5.00
2018-04-18T20:14:37.198Z,2.73
2018-04-18T20:17:05.833Z,2.10
2018-04-18T20:19:33.773Z,2.73
2018-04-18T20:22:02.072Z,3.93
2018-04-18T20:24:31.389Z,3.90
2018-04-18T20:26:59.383Z,2.33
2018-04-18T20:29:27.156Z,2.57
2018-04-18T20:31:55.075Z,2.87
2018-04-18T20:34:23.398Z,3.33
2018-04-18T20:36:51.169Z,2.57
2018-04-18T20:39:19.011Z,2.17
2018-04-18T20:41:55.139Z,2.90
2018-04-18T20:44:23.747Z,2.20
2018-04-18T20:46:52.310Z,4.57
2018-04-18T20:49:20.070Z,3.27
2018-04-18T20:51:47.671Z,2.47
2018-04-18T20:54:16.350Z,3.43
2018-04-18T20:56:43.907Z,2.77
2018-04-18T20:59:12.518Z,1.60
2018-04-18T21:01:41.180Z,2.10
2018-04-18T21:04:08.781Z,2.03
2018-04-18T21:06:37.568Z,1.97
2018-04-18T21:09:05.884Z,2.77
2018-04-18T21:11:34.369Z,2.27
2018-04-18T21:14:02.132Z,3.07
2018-04-18T21:16:29.660Z,1.47
2018-04-18T21:18:59.018Z,2.60
2018-04-18T21:21:27.737Z,1.83
2018-04-18T21:23:57.249Z,3.10
2018-04-18T21:26:25.509Z,2.43
2018-04-18T21:28:53.032Z,2.93
2018-04-18T21:31:20.607Z,2.20
2018-04-18T21:33:48.435Z,1.43
2018-04-18T21:36:16.267Z,1.97
2018-04-18T21:38:46.568Z,2.50
2018-04-18T21:41:14.423Z,3.10
2018-04-18T21:43:42.726Z,3.43
2018-04-18T21:46:10.707Z,2.53
2018-04-18T21:48:38.468Z,2.80
2018-04-18T21:53:41.953Z,1.93
2018-04-18T21:56:10.678Z,1.73
2018-04-18T21:58:38.512Z,2.93
2018-04-18T22:01:06.844Z,3.57
2018-04-18T22:03:35.355Z,2.37
2018-04-18T22:06:04.052Z,1.77
2018-04-18T22:08:32.634Z,2.53
2018-04-18T22:11:01.216Z,2.83
2018-04-18T22:13:29.133Z,1.90
2018-04-18T22:15:57.002Z,1.97
2018-04-18T22:18:24.962Z,2.63
2018-04-18T22:20:52.516Z,3.10
2018-04-18T22:23:20.506Z,2.87
2018-04-18T22:25:48.043Z,1.60
2018-04-18T22:28:15.679Z,2.03
2018-04-18T22:30:44.303Z,1.73
2018-04-18T22:33:13.062Z,2.70
2018-04-18T22:35:40.609Z,2.30
2018-04-18T22:38:08.772Z,2.90
2018-04-18T22:40:36.596Z,2.13
2018-04-18T22:43:04.119Z,2.37
2018-04-18T22:45:32.568Z,2.07
2018-04-18T22:48:00.152Z,3.10
2018-04-18T22:50:28.591Z,1.97
2018-04-18T22:52:56.443Z,2.33
2018-04-18T22:55:24.012Z,2.10
2018-04-18T22:57:52.700Z,2.83
2018-04-18T23:00:22.010Z,1.47
2018-04-18T23:02:49.925Z,3.10
2018-04-18T23:05:19.230Z,1.50
2018-04-18T23:07:46.756Z,2.53
2018-04-18T23:10:14.613Z,2.53
2018-04-18T23:12:42.702Z,2.70
2018-04-18T23:15:10.472Z,1.87
2018-04-18T23:17:38.299Z,1.90
2018-04-18T23:20:06.891Z,2.13
2018-04-18T23:22:35.454Z,1.63
2018-04-18T23:25:02.969Z,2.40
2018-04-18T23:27:30.797Z,3.23
2018-04-18T23:29:59.430Z,4.13
2018-04-18T23:32:27.249Z,1.80
2018-04-18T23:34:54.812Z,2.63
2018-04-18T23:37:23.112Z,2.83
2018-04-18T23:39:51.736Z,4.50
2018-04-18T23:42:19.611Z,3.23
2018-04-18T23:44:47.437Z,2.40
2018-04-18T23:47:15.196Z,1.97
2018-04-18T23:49:42.936Z,1.80
2018-04-18T23:52:10.741Z,2.33
2018-04-18T23:54:38.263Z,3.63
2018-04-18T23:57:06.074Z,2.33
2018-04-18T23:59:33.847Z,2.30
